Flight Track Log - Related Links

Times and Time Zones

All times are in EDT time to prevent confusion due to time zone crossing. See the SKW5631 flight status page for this flight to view local times or setup timezone preferences in your user account.

Time Position Orientation Groundspeed Altitude Reporting Facility
EDT Latitude Longitude Course Direction KTS MPH feet Rate Location/Type
Tue 09:41:26 PM 37.6667 -122.3667 135° Southeast 205 236 2,900  Level Northern Cal TRACON
Tue 09:42:02 PM 37.6997 -122.3706 355° North 233 268 4,400 2,556 Climbing Oakland Center
Tue 09:42:20 PM 37.7167 -122.4000 306° West 268 308 5,200 2,786 Climbing Northern Cal TRACON
Tue 09:43:00 PM 37.4267 -122.3467 113° Southeast  Level FlightAware Approximate
Tue 09:43:26 PM 37.6833 -122.5000 247° West 284 327 8,300  Level Northern Cal TRACON
Tue 09:44:00 PM 37.3400 -122.2146 136° Southeast  Level FlightAware Approximate
Tue 09:44:26 PM 37.6167 -122.5000 180° South 311 358 11,100  Level Northern Cal TRACON
Tue 09:45:00 PM 37.2505 -122.0840 130° Southeast  Level FlightAware Approximate
Tue 09:45:05 PM 37.5786 -122.4653 144° Southeast 301 346 12,400  Level Oakland Center
Tue 09:46:00 PM 37.1835 -122.0002 135° Southeast  Level FlightAware Approximate
Tue 09:46:07 PM 37.5125 -122.3911 138° Southeast 315 362 14,800  Level Oakland Center
Tue 09:47:08 PM 37.4250 -122.2969 139° Southeast 345 397 16,800 1,770 Climbing Oakland Center
Tue 09:48:09 PM 37.3464 -122.2117 139° Southeast 372 428 18,400 1,672 Climbing Oakland Center
Tue 09:49:10 PM 37.2656 -122.1253 140° Southeast 380 437 20,200 1,574 Climbing Oakland Center
Tue 09:50:11 PM 37.1731 -122.0533 148° Southeast 392 451 21,600 1,377 Climbing Oakland Center
Tue 09:51:12 PM 37.0825 -121.9731 145° Southeast 399 459 23,000 1,230 Climbing Oakland Center
Tue 09:52:13 PM 36.9994 -121.8797 138° Southeast 403 464 24,100 1,131 Climbing Oakland Center
Tue 09:53:14 PM 36.9128 -121.7867 139° Southeast 410 472 25,300 1,131 Climbing Oakland Center
Tue 09:54:15 PM 36.8250 -121.6931 140° Southeast 414 476 26,400 836 Climbing Oakland Center
Tue 09:55:16 PM 36.7311 -121.5886 138° Southeast 418 481 27,000 295 Climbing Oakland Center
Tue 09:56:17 PM 36.6372 -121.4889 140° Southeast 439 505 27,000  Level Oakland Center
Tue 09:57:18 PM 36.5417 -121.3864 139° Southeast 453 521 27,000  Level Oakland Center
Tue 09:58:19 PM 36.4461 -121.2819 139° Southeast 455 524 27,000  Level Oakland Center
Tue 09:59:20 PM 36.3500 -121.1783 139° Southeast 458 527 27,000  Level Oakland Center
Tue 10:00:21 PM 36.2539 -121.0775 140° Southeast 454 522 27,000  Level Oakland Center
Tue 10:01:22 PM 36.1633 -120.9792 139° Southeast 437 503 27,000  Level Oakland Center
Tue 10:02:23 PM 36.0728 -120.8853 140° Southeast 426 490 27,000  Level Oakland Center
Tue 10:03:24 PM 35.9847 -120.7928 140° Southeast 417 480 27,000  Level Oakland Center
Tue 10:04:25 PM 35.8789 -120.6797 139° Southeast 418 481 27,000  Level Oakland Center
Tue 10:05:26 PM 35.7919 -120.5883 140° Southeast 412 474 27,000  Level Oakland Center
Tue 10:06:27 PM 35.7050 -120.4981 140° Southeast 408 470 27,000  Level Oakland Center
Tue 10:07:28 PM 35.6175 -120.4072 140° Southeast 409 471 27,000  Level Oakland Center
Tue 10:08:29 PM 35.5303 -120.3169 140° Southeast 406 467 27,000 -590 Level Oakland Center
Tue 10:09:30 PM 35.4411 -120.2253 140° Southeast 413 475 25,800 -1,328 Descending Oakland Center
Tue 10:10:31 PM 35.3467 -120.1267 140° Southeast 427 491 24,300 -1,465 Descending Oakland Center
Tue 10:10:56 PM 35.3103 -120.0881 139° Southeast 431 496 23,700 -1,448 Descending Los Angeles Center
Tue 10:11:58 PM 35.2178 -119.9933 140° Southeast 432 497 22,200 -1,452 Descending Los Angeles Center
Tue 10:13:00 PM 35.1253 -119.8986 140° Southeast 432 497 20,700 -1,463 Descending Los Angeles Center
Tue 10:14:01 PM 35.0419 -119.7967 135° Southeast 427 491 19,200 -1,415 Descending Los Angeles Center
Tue 10:15:03 PM 34.9650 -119.6914 132° Southeast 417 480 17,800 -1,210 Descending Los Angeles Center
Tue 10:16:05 PM 34.8892 -119.5881 132° Southeast 411 473 16,700 -1,268 Descending Los Angeles Center
Tue 10:17:06 PM 34.8006 -119.4714 133° Southeast 394 453 15,200 -1,317 Descending Los Angeles Center
Tue 10:18:08 PM 34.7289 -119.3753 132° Southeast 385 443 14,000 -1,171 Descending Los Angeles Center
Tue 10:19:09 PM 34.6572 -119.2825 133° Southeast 379 436 12,800 -1,122 Descending Los Angeles Center
Tue 10:20:11 PM 34.5933 -119.1956 132° Southeast 366 421 11,700 -823 Descending Los Angeles Center
Tue 10:21:13 PM 34.5350 -119.1192 133° Southeast 315 362 11,100 -293 Descending Los Angeles Center
Tue 10:22:14 PM 34.4803 -119.0439 131° Southeast 294 338 11,100 -244 Level Los Angeles Center
Tue 10:23:16 PM 34.4144 -118.9572 133° Southeast 293 337 10,600 -774 Descending Los Angeles Center
Tue 10:24:18 PM 34.3669 -118.8797 127° Southeast 286 329 9,500 -1,258 Descending Los Angeles Center
Tue 10:25:20 PM 34.3217 -118.8081 127° Southeast 269 310 8,000 -1,463 Descending Los Angeles Center
Tue 10:26:21 PM 34.2794 -118.7422 128° Southeast 248 285 6,500 -1,415 Descending Los Angeles Center
Tue 10:27:23 PM 34.2403 -118.6753 125° Southeast 247 284 5,100 -1,210 Descending Los Angeles Center
Tue 10:28:25 PM 34.2031 -118.6122 126° Southeast 239 275 4,000 -727 Descending Los Angeles Center
Tue 10:29:02 PM 34.2000 -118.5667 95° East 201 231 3,900 -680 Descending Southern California TRACON
Tue 10:30:02 PM 34.2000 -118.5000 90° East 175 201 2,900 -1,000 Descending Southern California TRACON

Login

Don't have an account? Register now (free) for customized features, flight alerts, and more!